createdAt,value
2019-03-25T00:01:17.551Z,19.45
2019-03-25T00:03:46.055Z,17.77
2019-03-25T00:06:14.553Z,24.02
2019-03-25T00:08:43.012Z,18.07
2019-03-25T00:11:11.509Z,24.35
2019-03-25T00:13:39.949Z,17.32
2019-03-25T00:16:11.091Z,22.25
2019-03-25T00:18:39.531Z,18.20
2019-03-25T00:21:07.954Z,16.85
2019-03-25T00:23:37.172Z,21.00
2019-03-25T00:26:05.610Z,20.17
2019-03-25T00:28:34.114Z,23.67
2019-03-25T00:31:02.564Z,16.10
2019-03-25T00:33:30.995Z,27.05
2019-03-25T00:35:59.439Z,21.20
2019-03-25T00:38:27.880Z,16.02
2019-03-25T00:40:58.157Z,19.05
2019-03-25T00:43:26.610Z,10.28
2019-03-25T00:45:55.030Z,16.25
2019-03-25T00:48:23.478Z,12.40
2019-03-25T00:50:51.906Z,10.25
2019-03-25T00:53:20.337Z,2.87
2019-03-25T00:55:48.769Z,6.60
2019-03-25T00:58:17.213Z,6.85
2019-03-25T01:00:45.722Z,9.43
2019-03-25T01:03:14.229Z,5.30
2019-03-25T01:05:42.658Z,5.05
2019-03-25T01:08:11.098Z,2.58
2019-03-25T01:10:39.539Z,5.87
2019-03-25T01:13:07.970Z,3.80
2019-03-25T01:15:36.406Z,2.72
2019-03-25T01:18:16.111Z,4.65
2019-03-25T01:20:35.009Z,5.75
2019-03-25T01:23:03.443Z,2.70
2019-03-25T01:25:31.877Z,10.68
2019-03-25T01:28:00.323Z,4.35
2019-03-25T01:30:28.745Z,8.13
2019-03-25T01:32:57.183Z,2.67
2019-03-25T01:35:25.606Z,6.53
2019-03-25T01:37:54.061Z,6.05
2019-03-25T01:40:22.503Z,11.30
2019-03-25T01:42:50.937Z,7.40
2019-03-25T01:45:19.371Z,11.05
2019-03-25T01:47:47.806Z,5.70
2019-03-25T01:50:16.234Z,4.70
2019-03-25T01:52:44.687Z,6.12
2019-03-25T01:55:13.866Z,9.63
2019-03-25T01:58:01.776Z,9.63
2019-03-25T02:00:30.215Z,11.95
2019-03-25T02:02:58.663Z,11.70
2019-03-25T02:05:27.111Z,21.12
2019-03-25T02:07:55.542Z,6.55
2019-03-25T02:10:23.969Z,5.95
2019-03-25T02:12:52.389Z,5.15
2019-03-25T02:15:20.844Z,10.82
2019-03-25T02:17:49.275Z,11.55
2019-03-25T02:20:26.468Z,11.93
2019-03-25T02:22:47.956Z,9.35
2019-03-25T02:25:24.876Z,4.95
2019-03-25T02:27:46.673Z,4.60
2019-03-25T02:30:15.534Z,7.78
2019-03-25T02:32:43.970Z,9.45
2019-03-25T02:35:12.482Z,5.62
2019-03-25T02:37:40.917Z,11.05
2019-03-25T02:40:09.697Z,9.28
2019-03-25T02:42:38.123Z,9.28
2019-03-25T02:45:07.345Z,7.37
2019-03-25T02:47:35.843Z,13.95
2019-03-25T02:50:05.367Z,6.20
2019-03-25T02:52:33.835Z,16.32
2019-03-25T02:55:02.262Z,16.75
2019-03-25T02:57:30.709Z,12.10
2019-03-25T02:59:59.139Z,14.85
2019-03-25T03:02:27.575Z,12.50
2019-03-25T03:04:57.999Z,13.55
2019-03-25T03:07:26.445Z,23.67
2019-03-25T03:09:54.886Z,14.65
2019-03-25T03:12:25.975Z,14.63
2019-03-25T03:14:54.428Z,14.73
2019-03-25T03:17:22.953Z,16.30
2019-03-25T03:19:51.379Z,14.13
2019-03-25T03:22:19.821Z,22.82
2019-03-25T03:24:48.253Z,14.25
2019-03-25T03:27:16.695Z,13.15
2019-03-25T03:29:45.140Z,12.37
2019-03-25T03:32:19.864Z,15.53
2019-03-25T03:34:48.305Z,20.37
2019-03-25T03:37:16.823Z,13.88
2019-03-25T03:39:45.258Z,12.07
2019-03-25T03:42:13.893Z,12.33
2019-03-25T03:44:42.335Z,16.90
2019-03-25T03:47:10.776Z,16.00
2019-03-25T03:49:39.214Z,11.75
2019-03-25T03:52:07.918Z,21.40
2019-03-25T03:54:36.700Z,16.12
2019-03-25T03:57:05.207Z,15.35
2019-03-25T03:59:33.918Z,14.55
2019-03-25T04:02:02.383Z,16.60
2019-03-25T04:04:30.879Z,26.80
2019-03-25T04:07:05.383Z,26.10
2019-03-25T04:09:29.482Z,11.35
2019-03-25T04:11:57.936Z,14.85
2019-03-25T04:14:26.378Z,21.12
2019-03-25T04:16:54.824Z,16.35
2019-03-25T04:19:23.260Z,14.35
2019-03-25T04:21:51.694Z,27.22
2019-03-25T04:24:20.136Z,25.08
2019-03-25T04:26:48.558Z,20.68
2019-03-25T04:29:17.000Z,30.45
2019-03-25T04:31:45.435Z,20.00
2019-03-25T04:34:13.881Z,24.43
2019-03-25T04:36:42.330Z,18.82
2019-03-25T04:39:10.768Z,17.67
2019-03-25T04:41:39.209Z,29.35
2019-03-25T04:44:07.642Z,17.92
2019-03-25T04:46:36.077Z,33.15
2019-03-25T04:49:04.516Z,26.33
2019-03-25T04:51:32.957Z,28.57
2019-03-25T04:54:01.398Z,28.02
2019-03-25T04:56:39.168Z,27.60
2019-03-25T04:58:59.982Z,27.17
2019-03-25T05:01:28.414Z,35.50
2019-03-25T05:03:56.928Z,38.50
2019-03-25T05:06:25.359Z,35.15
2019-03-25T05:08:53.876Z,36.63
2019-03-25T05:11:30.584Z,36.95
2019-03-25T05:13:54.713Z,42.23
2019-03-25T05:16:23.167Z,48.30
2019-03-25T05:18:51.611Z,38.88
2019-03-25T05:21:23.102Z,41.45
2019-03-25T05:23:51.534Z,33.33
2019-03-25T05:26:19.973Z,36.50
2019-03-25T05:28:48.412Z,35.30
2019-03-25T05:31:16.839Z,34.48
2019-03-25T05:33:45.273Z,29.37
2019-03-25T05:36:13.707Z,37.90
2019-03-25T05:38:42.147Z,28.30
2019-03-25T05:41:10.594Z,26.87
2019-03-25T05:43:39.039Z,22.20
2019-03-25T05:46:07.474Z,32.50
2019-03-25T05:48:35.920Z,22.50
2019-03-25T05:51:04.350Z,29.67
2019-03-25T05:53:32.790Z,21.50
2019-03-25T05:56:01.228Z,32.75
2019-03-25T05:58:29.653Z,31.25
2019-03-25T06:00:58.092Z,27.35
2019-03-25T06:03:26.527Z,33.02
2019-03-25T06:05:54.958Z,24.90
2019-03-25T06:08:23.395Z,24.45
2019-03-25T06:10:51.847Z,17.98
2019-03-25T06:13:20.269Z,15.65
2019-03-25T06:15:48.712Z,14.43
2019-03-25T06:18:17.139Z,16.02
2019-03-25T06:20:45.591Z,12.55
2019-03-25T06:23:14.083Z,14.20
2019-03-25T06:25:42.520Z,18.15
2019-03-25T06:28:10.963Z,12.20
2019-03-25T06:30:39.403Z,17.60
2019-03-25T06:33:12.289Z,17.17
2019-03-25T06:35:37.995Z,24.72
2019-03-25T06:38:06.448Z,21.27
2019-03-25T06:40:34.884Z,17.10
2019-03-25T06:43:06.102Z,20.77
2019-03-25T06:45:34.533Z,15.98
2019-03-25T06:48:02.979Z,24.98
2019-03-25T06:50:31.409Z,24.57
2019-03-25T06:53:02.861Z,31.30
2019-03-25T06:55:31.291Z,22.48
2019-03-25T06:57:59.731Z,30.02
2019-03-25T07:00:30.852Z,20.00
2019-03-25T07:02:59.289Z,25.90
2019-03-25T07:05:27.723Z,32.40
2019-03-25T07:07:56.162Z,22.55
2019-03-25T07:10:35.821Z,33.53
2019-03-25T07:13:05.405Z,29.30
2019-03-25T07:15:33.843Z,29.70
2019-03-25T07:18:02.379Z,24.40
2019-03-25T07:20:30.949Z,30.27
2019-03-25T07:22:59.387Z,34.60
2019-03-25T07:25:27.834Z,37.20
2019-03-25T07:27:56.276Z,29.57
2019-03-25T07:30:24.705Z,26.68
2019-03-25T07:32:53.139Z,25.37
2019-03-25T07:35:22.516Z,31.17
2019-03-25T07:37:51.009Z,34.53
2019-03-25T07:40:19.425Z,31.80
2019-03-25T07:42:47.875Z,30.00
2019-03-25T07:45:16.383Z,28.85
2019-03-25T07:47:44.801Z,21.97
2019-03-25T07:50:13.327Z,20.65
2019-03-25T07:52:41.758Z,16.48
2019-03-25T07:55:10.557Z,18.80
2019-03-25T07:57:47.716Z,19.23
2019-03-25T08:00:14.460Z,22.10
2019-03-25T08:02:45.587Z,16.70
2019-03-25T08:05:14.469Z,23.62
2019-03-25T08:07:42.949Z,23.25
2019-03-25T08:10:11.723Z,22.60
2019-03-25T08:12:40.182Z,15.40
2019-03-25T08:15:09.269Z,18.55
2019-03-25T08:17:37.772Z,21.87
2019-03-25T08:20:25.551Z,14.68
2019-03-25T08:22:53.987Z,19.85
2019-03-25T08:25:22.431Z,18.37
2019-03-25T08:27:59.456Z,15.93
2019-03-25T08:30:21.099Z,21.17
2019-03-25T08:32:49.520Z,20.72
2019-03-25T08:35:18.031Z,17.87
2019-03-25T08:37:46.474Z,22.35
2019-03-25T08:40:16.343Z,18.77
2019-03-25T08:42:44.783Z,23.18
2019-03-25T08:45:14.471Z,20.68
2019-03-25T08:47:43.569Z,14.30
2019-03-25T08:50:12.546Z,18.62
2019-03-25T08:52:40.974Z,22.58
2019-03-25T08:55:09.766Z,21.60
2019-03-25T08:57:39.862Z,21.12
2019-03-25T09:00:09.926Z,20.70
2019-03-25T09:02:38.370Z,18.10
2019-03-25T09:05:07.757Z,14.83
2019-03-25T09:07:36.355Z,20.68
2019-03-25T09:10:09.053Z,21.07
2019-03-25T09:12:37.767Z,15.40
2019-03-25T09:15:08.443Z,25.23
2019-03-25T09:17:37.039Z,22.25
2019-03-25T09:20:07.931Z,22.40
2019-03-25T09:22:36.433Z,26.23
2019-03-25T09:25:07.279Z,29.65
2019-03-25T09:27:35.718Z,26.23
2019-03-25T09:30:06.268Z,27.75
2019-03-25T09:32:34.703Z,32.15
2019-03-25T09:35:03.209Z,25.20
2019-03-25T09:37:31.662Z,21.57
2019-03-25T09:40:00.361Z,19.55
2019-03-25T09:42:30.590Z,21.23
2019-03-25T09:44:59.019Z,20.52
2019-03-25T09:47:27.454Z,28.65
2019-03-25T09:49:55.883Z,27.65
2019-03-25T09:52:24.343Z,25.02
2019-03-25T09:54:52.774Z,30.05
2019-03-25T09:57:21.196Z,19.98
2019-03-25T09:59:49.631Z,20.77
2019-03-25T10:02:18.134Z,19.40
2019-03-25T10:04:46.588Z,15.90
2019-03-25T10:07:22.943Z,24.50
2019-03-25T10:09:51.395Z,21.02
2019-03-25T10:12:19.891Z,24.60
2019-03-25T10:14:48.322Z,16.65
2019-03-25T10:17:19.418Z,23.73
2019-03-25T10:19:47.856Z,18.85
2019-03-25T10:22:16.305Z,23.30
2019-03-25T10:24:44.749Z,14.47
2019-03-25T10:27:19.158Z,30.17
2019-03-25T10:29:47.592Z,18.48
2019-03-25T10:32:16.043Z,20.55
2019-03-25T10:34:44.502Z,23.98
2019-03-25T10:37:12.991Z,29.63
2019-03-25T10:39:41.439Z,21.95
2019-03-25T10:42:09.874Z,24.92
2019-03-25T10:44:38.389Z,21.27
2019-03-25T10:47:06.812Z,16.60
2019-03-25T10:49:35.268Z,16.82
2019-03-25T10:52:04.797Z,23.02
2019-03-25T10:54:33.328Z,17.42
2019-03-25T10:57:01.867Z,22.05
2019-03-25T10:59:30.310Z,8.20
2019-03-25T11:01:58.763Z,13.50
2019-03-25T11:04:27.187Z,9.95
2019-03-25T11:06:55.651Z,12.30
2019-03-25T11:09:24.166Z,15.10
2019-03-25T11:11:52.605Z,5.95
2019-03-25T11:14:22.578Z,11.88
2019-03-25T11:16:51.031Z,6.47
2019-03-25T11:19:19.478Z,10.32
2019-03-25T11:21:47.906Z,8.53
2019-03-25T11:24:16.341Z,9.65
2019-03-25T11:26:44.838Z,7.95
2019-03-25T11:29:13.288Z,12.23
2019-03-25T11:31:41.739Z,16.07
2019-03-25T11:34:12.467Z,17.12
2019-03-25T11:36:40.995Z,16.52
2019-03-25T11:39:10.162Z,15.30
2019-03-25T11:41:38.607Z,14.55
2019-03-25T11:44:07.126Z,18.48
2019-03-25T11:46:35.650Z,32.03
2019-03-25T11:49:04.097Z,12.13
2019-03-25T11:51:35.345Z,15.40
2019-03-25T11:54:03.946Z,21.35
2019-03-25T11:56:32.370Z,10.95
2019-03-25T11:59:02.887Z,13.43
2019-03-25T12:01:30.970Z,15.63
2019-03-25T12:03:59.427Z,14.93
2019-03-25T12:06:27.860Z,25.60
2019-03-25T12:08:56.310Z,21.17
2019-03-25T12:11:24.747Z,22.77
2019-03-25T12:13:53.754Z,22.80
2019-03-25T12:16:22.207Z,19.52
2019-03-25T12:18:50.638Z,22.67
2019-03-25T12:21:19.070Z,29.05
2019-03-25T12:23:47.503Z,25.00
2019-03-25T12:26:15.941Z,19.62
2019-03-25T12:28:44.391Z,25.37
2019-03-25T12:31:12.827Z,30.15
2019-03-25T12:33:41.282Z,23.77
2019-03-25T12:36:09.801Z,18.52
2019-03-25T12:38:39.627Z,23.02
2019-03-25T12:41:08.063Z,22.87
2019-03-25T12:43:36.518Z,20.23
2019-03-25T12:46:05.027Z,11.83
2019-03-25T12:48:33.812Z,10.43
2019-03-25T12:51:03.782Z,15.45
2019-03-25T12:53:32.225Z,14.90
2019-03-25T12:56:00.670Z,18.57
2019-03-25T12:58:29.111Z,12.25
2019-03-25T13:00:57.563Z,13.35
2019-03-25T13:03:26.831Z,13.20
2019-03-25T13:05:55.283Z,18.50
2019-03-25T13:08:32.821Z,15.03
2019-03-25T13:10:53.894Z,10.48
2019-03-25T13:13:22.349Z,11.15
2019-03-25T13:15:50.770Z,13.88
2019-03-25T13:18:19.215Z,16.65
2019-03-25T13:20:47.641Z,7.30
2019-03-25T13:23:16.100Z,12.98
2019-03-25T13:25:44.592Z,12.82
2019-03-25T13:28:13.025Z,18.77
2019-03-25T13:30:41.486Z,12.25
2019-03-25T13:33:09.920Z,18.70
2019-03-25T13:35:38.366Z,20.25
2019-03-25T13:38:07.561Z,15.28
2019-03-25T13:40:36.010Z,19.45
2019-03-25T13:43:06.084Z,17.67
2019-03-25T13:45:34.540Z,15.23
2019-03-25T13:48:02.980Z,21.37
2019-03-25T13:50:31.476Z,28.15
2019-03-25T13:52:59.914Z,20.43
2019-03-25T13:55:28.351Z,13.53
2019-03-25T13:57:56.805Z,24.45
2019-03-25T14:00:36.009Z,29.92
2019-03-25T14:03:04.626Z,19.92
2019-03-25T14:05:33.061Z,20.48
2019-03-25T14:08:01.495Z,19.52
2019-03-25T14:10:29.931Z,22.77
2019-03-25T14:12:58.380Z,23.30
2019-03-25T14:15:27.594Z,23.80
2019-03-25T14:17:56.043Z,16.93
2019-03-25T14:20:24.475Z,25.43
2019-03-25T14:22:52.927Z,28.25
2019-03-25T14:25:21.365Z,22.02
2019-03-25T14:27:49.812Z,21.07
2019-03-25T14:30:21.183Z,27.10
2019-03-25T14:32:49.675Z,24.55
2019-03-25T14:35:18.131Z,25.57
2019-03-25T14:37:46.623Z,17.15
2019-03-25T14:40:15.138Z,21.90
2019-03-25T14:42:43.567Z,25.17
2019-03-25T14:45:12.064Z,26.93
2019-03-25T14:47:40.502Z,18.60
2019-03-25T14:50:09.387Z,20.08
2019-03-25T14:52:37.826Z,20.77
2019-03-25T14:55:06.396Z,30.82
2019-03-25T14:57:34.842Z,38.65
2019-03-25T15:00:04.631Z,31.95
2019-03-25T15:02:33.065Z,20.52
2019-03-25T15:05:06.804Z,23.67
2019-03-25T15:07:35.304Z,29.23
2019-03-25T15:10:06.752Z,24.77
2019-03-25T15:12:35.180Z,24.95
2019-03-25T15:15:04.793Z,27.60
2019-03-25T15:17:33.235Z,25.70
2019-03-25T15:20:01.669Z,21.23
2019-03-25T15:22:30.120Z,22.87
2019-03-25T15:24:58.565Z,20.90
2019-03-25T15:27:27.003Z,19.32
2019-03-25T15:29:55.438Z,27.67
2019-03-25T15:32:23.888Z,22.80
2019-03-25T15:34:52.332Z,26.45
2019-03-25T15:37:20.763Z,30.97
2019-03-25T15:39:49.207Z,26.68
2019-03-25T15:42:17.646Z,27.87
2019-03-25T15:44:46.140Z,33.18
2019-03-25T15:47:14.708Z,31.75
2019-03-25T15:49:43.194Z,24.80
2019-03-25T15:52:11.649Z,26.80
2019-03-25T15:54:43.102Z,32.48
2019-03-25T15:57:11.536Z,23.02
2019-03-25T15:59:39.976Z,21.82
2019-03-25T16:02:08.427Z,28.38
2019-03-25T16:04:36.877Z,38.80
2019-03-25T16:07:05.939Z,19.80
2019-03-25T16:09:34.383Z,21.12
2019-03-25T16:12:04.904Z,32.15
2019-03-25T16:14:33.000Z,39.40
2019-03-25T16:17:01.432Z,30.05
2019-03-25T16:19:29.867Z,23.65
2019-03-25T16:21:58.317Z,28.87
2019-03-25T16:24:26.742Z,32.73
2019-03-25T16:26:55.183Z,24.55
2019-03-25T16:29:23.611Z,27.75
2019-03-25T16:31:52.060Z,30.23
2019-03-25T16:34:20.490Z,33.45
2019-03-25T16:36:48.937Z,34.83
2019-03-25T16:39:17.370Z,29.72
2019-03-25T16:41:45.822Z,34.98
2019-03-25T16:44:14.666Z,25.27
2019-03-25T16:46:43.085Z,21.90
2019-03-25T16:49:11.524Z,28.52
2019-03-25T16:51:39.946Z,35.33
2019-03-25T16:54:08.391Z,19.98
2019-03-25T16:56:37.402Z,29.35
2019-03-25T16:59:05.833Z,21.90
2019-03-25T17:01:35.814Z,27.87
2019-03-25T17:04:04.318Z,29.57
2019-03-25T17:06:32.763Z,24.72
2019-03-25T17:09:01.190Z,30.95
2019-03-25T17:11:29.635Z,25.12
2019-03-25T17:13:58.072Z,24.27
2019-03-25T17:16:26.498Z,29.90
2019-03-25T17:18:54.953Z,22.58
2019-03-25T17:21:23.399Z,29.07
2019-03-25T17:23:52.782Z,25.85
2019-03-25T17:26:21.360Z,29.55
2019-03-25T17:28:49.789Z,29.70
2019-03-25T17:31:21.257Z,30.27
2019-03-25T17:33:50.251Z,23.87
2019-03-25T17:36:18.681Z,25.23
2019-03-25T17:38:47.122Z,29.67
2019-03-25T17:41:15.567Z,32.73
2019-03-25T17:43:44.005Z,26.52
2019-03-25T17:46:12.457Z,28.65
2019-03-25T17:48:40.929Z,33.80
2019-03-25T17:51:09.358Z,30.30
2019-03-25T17:53:37.811Z,30.72
2019-03-25T17:56:06.252Z,28.02
2019-03-25T17:58:34.693Z,22.25
2019-03-25T18:01:05.919Z,19.23
2019-03-25T18:03:34.361Z,23.77
2019-03-25T18:06:02.805Z,26.15
2019-03-25T18:08:31.245Z,20.82
2019-03-25T18:10:59.708Z,28.73
2019-03-25T18:13:28.141Z,38.02
2019-03-25T18:15:56.581Z,36.50
2019-03-25T18:18:25.095Z,39.67
2019-03-25T18:20:53.573Z,28.95
2019-03-25T18:23:23.303Z,30.70
2019-03-25T18:25:51.731Z,27.70
2019-03-25T18:28:20.158Z,26.12
2019-03-25T18:30:48.626Z,32.35
2019-03-25T18:33:17.074Z,32.23
2019-03-25T18:35:45.531Z,28.32
2019-03-25T18:38:13.971Z,32.98
2019-03-25T18:40:42.407Z,41.77
2019-03-25T18:43:10.847Z,32.53
2019-03-25T18:45:39.290Z,31.27
2019-03-25T18:48:07.744Z,29.82
2019-03-25T18:50:36.186Z,28.65
2019-03-25T18:53:04.628Z,37.50
2019-03-25T18:55:33.092Z,38.38
2019-03-25T18:58:01.588Z,41.55
2019-03-25T19:00:32.552Z,37.28
2019-03-25T19:03:02.219Z,40.85
2019-03-25T19:05:31.002Z,41.10
2019-03-25T19:08:01.535Z,45.63
2019-03-25T19:10:30.070Z,37.30
2019-03-25T19:12:58.516Z,46.37
2019-03-25T19:15:26.965Z,44.48
2019-03-25T19:17:55.465Z,39.38
2019-03-25T19:20:23.900Z,41.40
2019-03-25T19:22:52.434Z,56.25
2019-03-25T19:25:20.893Z,59.10
2019-03-25T19:27:49.445Z,55.63
2019-03-25T19:30:17.939Z,42.85
2019-03-25T19:32:46.411Z,47.85
2019-03-25T19:35:14.955Z,33.80
2019-03-25T19:37:43.417Z,45.80
2019-03-25T19:40:11.982Z,43.58
2019-03-25T19:42:40.529Z,41.00
2019-03-25T19:45:09.452Z,40.52
2019-03-25T19:47:37.981Z,38.70
2019-03-25T19:50:06.897Z,40.17
2019-03-25T19:52:35.359Z,37.33
2019-03-25T19:55:04.346Z,49.13
2019-03-25T19:57:32.836Z,31.45
2019-03-25T20:00:01.406Z,37.42
2019-03-25T20:02:29.905Z,37.98
2019-03-25T20:04:58.399Z,37.17
2019-03-25T20:07:26.873Z,32.85
2019-03-25T20:09:55.531Z,33.70
2019-03-25T20:12:24.050Z,44.23
2019-03-25T20:14:52.661Z,23.10
2019-03-25T20:17:21.088Z,35.88
2019-03-25T20:19:49.594Z,30.50
2019-03-25T20:22:18.125Z,37.88
2019-03-25T20:24:46.669Z,33.45
2019-03-25T20:27:15.429Z,30.97
2019-03-25T20:29:43.974Z,46.42
2019-03-25T20:32:12.441Z,35.80
2019-03-25T20:34:40.928Z,29.07
2019-03-25T20:37:09.377Z,32.58
2019-03-25T20:39:37.806Z,34.50
2019-03-25T20:42:06.252Z,32.65
2019-03-25T20:44:34.691Z,32.95
2019-03-25T20:47:03.235Z,32.03
2019-03-25T20:49:31.735Z,26.80
2019-03-25T20:52:00.183Z,33.10
2019-03-25T20:54:28.628Z,29.87
2019-03-25T20:56:57.330Z,22.95
2019-03-25T20:59:25.827Z,16.45
2019-03-25T21:01:54.304Z,31.27
2019-03-25T21:04:22.804Z,21.20
2019-03-25T21:06:54.401Z,18.25
2019-03-25T21:09:21.410Z,14.75
2019-03-25T21:11:49.857Z,18.17
2019-03-25T21:14:18.285Z,25.05
2019-03-25T21:16:46.803Z,21.45
2019-03-25T21:19:15.311Z,18.52
2019-03-25T21:21:43.816Z,25.95
2019-03-25T21:24:12.336Z,19.42
2019-03-25T21:26:40.815Z,32.90
2019-03-25T21:29:10.770Z,26.30
2019-03-25T21:31:39.312Z,24.05
2019-03-25T21:34:07.796Z,44.23
2019-03-25T21:36:36.284Z,22.05
2019-03-25T21:39:06.544Z,28.90
2019-03-25T21:41:35.036Z,20.00
2019-03-25T21:44:03.540Z,24.95
2019-03-25T21:46:32.131Z,20.08
2019-03-25T21:49:00.565Z,14.43
2019-03-25T21:51:29.072Z,25.27
2019-03-25T21:53:57.510Z,18.50
2019-03-25T21:56:25.992Z,18.12
2019-03-25T21:58:54.629Z,10.75
2019-03-25T22:01:23.078Z,24.43
2019-03-25T22:03:51.512Z,22.02
2019-03-25T22:06:19.948Z,22.37
2019-03-25T22:08:48.371Z,17.17
2019-03-25T22:11:16.811Z,25.90
2019-03-25T22:13:45.238Z,26.05
2019-03-25T22:16:13.681Z,23.62
2019-03-25T22:18:42.154Z,28.17
2019-03-25T22:21:10.595Z,29.45
2019-03-25T22:23:39.052Z,35.65
2019-03-25T22:26:07.495Z,37.00
2019-03-25T22:28:35.946Z,17.00
2019-03-25T22:31:04.509Z,39.58
2019-03-25T22:33:32.954Z,28.23
2019-03-25T22:36:01.388Z,33.28
2019-03-25T22:38:29.826Z,27.87
2019-03-25T22:40:58.253Z,31.37
2019-03-25T22:43:26.758Z,34.65
2019-03-25T22:45:55.209Z,27.85
2019-03-25T22:48:23.650Z,32.75
2019-03-25T22:50:52.094Z,28.55
2019-03-25T22:53:21.833Z,25.05
2019-03-25T22:55:50.273Z,26.70
2019-03-25T22:58:19.995Z,28.87
2019-03-25T23:00:48.434Z,41.33
2019-03-25T23:03:17.354Z,35.35
2019-03-25T23:05:45.859Z,31.37
2019-03-25T23:08:14.858Z,37.05
2019-03-25T23:10:43.376Z,26.50
2019-03-25T23:13:13.450Z,30.90
2019-03-25T23:15:41.903Z,25.25
2019-03-25T23:18:13.817Z,31.23
2019-03-25T23:20:42.932Z,21.27
2019-03-25T23:23:11.358Z,27.00
2019-03-25T23:25:39.801Z,35.50
2019-03-25T23:28:08.233Z,39.48
2019-03-25T23:30:37.101Z,32.10
2019-03-25T23:33:05.539Z,40.00
2019-03-25T23:35:33.986Z,34.50
2019-03-25T23:38:02.437Z,26.87
2019-03-25T23:40:30.861Z,34.15
2019-03-25T23:42:59.313Z,26.40
2019-03-25T23:45:27.739Z,26.87
2019-03-25T23:47:56.178Z,37.33
2019-03-25T23:50:24.648Z,29.15
2019-03-25T23:52:53.071Z,46.48
2019-03-25T23:55:21.515Z,35.75
2019-03-25T23:57:49.948Z,25.88
